LPE104 VNKT-VQPR
Flight info
| Callsign | LPE104 |
|---|---|
| Flight time | 0h 42m |
| Altitude | 33000 |
| Route | IGRIS1D KIMTI G348 SUBSU DCT TAKTI DCT PRO |
| Aircraft | A20N/M-SDE2E3FGHIRWXY/LB1 |
Departure
| Time | 2026-05-09 00:13 |
|---|---|
| Airport | Tribhuvan International Airport (VNKT) |
Arrival
| Time | 2026-05-09 00:55 |
|---|---|
| Airport | Paro International Airport (VQPR) |
| Time | Latitude | Longitude | Altitude | Speed | Heading |
|---|---|---|---|---|---|
| 2026-05-08 23:47 | 27.69875 | 85.35792 | 4391 ft | 0 kts | 291° |
| 2026-05-09 00:00 | 27.69873 | 85.35799 | 4391 ft | 3 kts | 291° |
| 2026-05-09 00:00 | 27.69865 | 85.35821 | 4391 ft | 3 kts | 291° |
| 2026-05-09 00:00 | 27.69858 | 85.35843 | 4391 ft | 3 kts | 290° |
| 2026-05-09 00:00 | 27.69852 | 85.35862 | 4391 ft | 2 kts | 282° |
| 2026-05-09 00:01 | 27.69851 | 85.35879 | 4391 ft | 2 kts | 237° |
| 2026-05-09 00:01 | 27.69858 | 85.35888 | 4391 ft | 1 kts | 206° |
| 2026-05-09 00:01 | 27.69866 | 85.35892 | 4391 ft | 1 kts | 202° |
| 2026-05-09 00:01 | 27.69871 | 85.35894 | 4391 ft | 0 kts | 201° |
| 2026-05-09 00:04 | 27.69866 | 85.35892 | 4391 ft | 1 kts | 200° |
| 2026-05-09 00:04 | 27.69848 | 85.35885 | 4391 ft | 4 kts | 200° |
| 2026-05-09 00:05 | 27.69846 | 85.35884 | 4391 ft | 0 kts | 200° |
| 2026-05-09 00:07 | 27.69839 | 85.35880 | 4391 ft | 3 kts | 200° |
| 2026-05-09 00:07 | 27.69795 | 85.35862 | 4391 ft | 7 kts | 200° |
| 2026-05-09 00:07 | 27.69750 | 85.35844 | 4391 ft | 10 kts | 201° |
| 2026-05-09 00:07 | 27.69682 | 85.35809 | 4392 ft | 12 kts | 203° |
| 2026-05-09 00:08 | 27.69598 | 85.35770 | 4392 ft | 14 kts | 202° |
| 2026-05-09 00:08 | 27.69496 | 85.35724 | 4392 ft | 17 kts | 201° |
| 2026-05-09 00:08 | 27.69380 | 85.35671 | 4392 ft | 19 kts | 202° |
| 2026-05-09 00:08 | 27.69251 | 85.35612 | 4392 ft | 15 kts | 201° |
| 2026-05-09 00:09 | 27.69151 | 85.35568 | 4391 ft | 12 kts | 200° |
| 2026-05-09 00:09 | 27.69067 | 85.35583 | 4391 ft | 13 kts | 137° |
| 2026-05-09 00:09 | 27.68991 | 85.35613 | 4392 ft | 13 kts | 198° |
| 2026-05-09 00:09 | 27.68900 | 85.35572 | 4392 ft | 15 kts | 203° |
| 2026-05-09 00:10 | 27.68776 | 85.35517 | 4392 ft | 23 kts | 201° |
| 2026-05-09 00:10 | 27.68602 | 85.35438 | 4393 ft | 29 kts | 201° |
| 2026-05-09 00:10 | 27.68458 | 85.35371 | 4395 ft | 0 kts | 219° |
| 2026-05-09 00:10 | 27.68455 | 85.35359 | 4395 ft | 3 kts | 260° |
| 2026-05-09 00:11 | 27.68439 | 85.35334 | 4395 ft | 5 kts | 198° |
| 2026-05-09 00:11 | 27.68420 | 85.35354 | 4395 ft | 4 kts | 101° |
| 2026-05-09 00:11 | 27.68434 | 85.35373 | 4395 ft | 4 kts | 24° |
| 2026-05-09 00:11 | 27.68471 | 85.35384 | 4395 ft | 7 kts | 14° |
| 2026-05-09 00:12 | 27.68531 | 85.35404 | 4394 ft | 11 kts | 20° |
| 2026-05-09 00:12 | 27.68690 | 85.35478 | 4392 ft | 62 kts | 22° |
| 2026-05-09 00:12 | 27.69366 | 85.35785 | 4392 ft | 143 kts | 22° |
| 2026-05-09 00:12 | 27.70482 | 85.36293 | 4826 ft | 172 kts | 22° |
| 2026-05-09 00:13 | 27.71583 | 85.36811 | 5796 ft | 176 kts | 26° |
| 2026-05-09 00:13 | 27.72656 | 85.37534 | 6796 ft | 182 kts | 38° |
| 2026-05-09 00:13 | 27.73630 | 85.38539 | 7599 ft | 198 kts | 52° |
| 2026-05-09 00:13 | 27.74185 | 85.40035 | 8223 ft | 221 kts | 85° |
| 2026-05-09 00:14 | 27.74149 | 85.41831 | 8933 ft | 244 kts | 94° |
| 2026-05-09 00:14 | 27.73933 | 85.43740 | 9899 ft | 251 kts | 108° |
| 2026-05-09 00:14 | 27.73107 | 85.45476 | 10896 ft | 256 kts | 131° |
| 2026-05-09 00:14 | 27.72003 | 85.46540 | 11680 ft | 260 kts | 150° |
| 2026-05-09 00:15 | 27.70346 | 85.47363 | 12531 ft | 272 kts | 158° |
| 2026-05-09 00:15 | 27.68486 | 85.48210 | 13054 ft | 298 kts | 158° |
| 2026-05-09 00:15 | 27.66520 | 85.49367 | 13543 ft | 324 kts | 146° |
| 2026-05-09 00:15 | 27.64768 | 85.51108 | 13971 ft | 350 kts | 131° |
| 2026-05-09 00:16 | 27.63376 | 85.53430 | 14484 ft | 364 kts | 116° |
| 2026-05-09 00:16 | 27.62529 | 85.56091 | 15281 ft | 367 kts | 105° |
| 2026-05-09 00:16 | 27.61813 | 85.58897 | 16045 ft | 372 kts | 107° |
| 2026-05-09 00:16 | 27.61104 | 85.61516 | 16721 ft | 376 kts | 107° |
| 2026-05-09 00:17 | 27.60317 | 85.64396 | 17471 ft | 381 kts | 107° |
| 2026-05-09 00:17 | 27.59523 | 85.67320 | 18200 ft | 386 kts | 107° |
| 2026-05-09 00:17 | 27.58613 | 85.70192 | 18838 ft | 390 kts | 114° |
| 2026-05-09 00:17 | 27.57450 | 85.72887 | 19476 ft | 393 kts | 117° |
| 2026-05-09 00:18 | 27.56220 | 85.75657 | 20101 ft | 398 kts | 117° |
| 2026-05-09 00:18 | 27.54993 | 85.78427 | 20725 ft | 401 kts | 117° |
| 2026-05-09 00:18 | 27.53791 | 85.81148 | 21334 ft | 405 kts | 117° |
| 2026-05-09 00:18 | 27.52567 | 85.83988 | 21959 ft | 409 kts | 114° |
| 2026-05-09 00:19 | 27.51656 | 85.86912 | 22546 ft | 414 kts | 105° |
| 2026-05-09 00:19 | 27.51108 | 85.90100 | 23161 ft | 418 kts | 97° |
| 2026-05-09 00:19 | 27.50940 | 85.93343 | 23745 ft | 422 kts | 92° |
| 2026-05-09 00:19 | 27.50828 | 85.96692 | 24412 ft | 420 kts | 92° |
| 2026-05-09 00:20 | 27.50707 | 85.99914 | 25562 ft | 403 kts | 93° |
| 2026-05-09 00:20 | 27.50588 | 86.03003 | 26761 ft | 386 kts | 93° |
| 2026-05-09 00:20 | 27.50475 | 86.05958 | 27878 ft | 372 kts | 93° |
| 2026-05-09 00:20 | 27.50364 | 86.08830 | 28406 ft | 375 kts | 93° |
| 2026-05-09 00:21 | 27.50249 | 86.11818 | 28798 ft | 379 kts | 93° |
| 2026-05-09 00:21 | 27.50134 | 86.14798 | 29201 ft | 383 kts | 93° |
| 2026-05-09 00:21 | 27.50018 | 86.17808 | 29642 ft | 386 kts | 93° |
| 2026-05-09 00:21 | 27.49901 | 86.20847 | 30008 ft | 391 kts | 93° |
| 2026-05-09 00:22 | 27.49783 | 86.23879 | 30103 ft | 393 kts | 93° |
| 2026-05-09 00:22 | 27.49104 | 86.29849 | 30112 ft | 390 kts | 104° |
| 2026-05-09 00:23 | 27.47949 | 86.35765 | 30117 ft | 390 kts | 104° |
| 2026-05-09 00:23 | 27.46806 | 86.41731 | 30116 ft | 391 kts | 104° |
| 2026-05-09 00:24 | 27.45659 | 86.47707 | 30113 ft | 390 kts | 104° |
| 2026-05-09 00:24 | 27.44513 | 86.53655 | 30115 ft | 392 kts | 104° |
| 2026-05-09 00:25 | 27.43556 | 86.58619 | 30115 ft | 392 kts | 104° |
| 2026-05-09 00:25 | 27.42403 | 86.64575 | 30115 ft | 392 kts | 104° |
| 2026-05-09 00:26 | 27.41242 | 86.70564 | 30115 ft | 393 kts | 104° |
| 2026-05-09 00:27 | 27.38945 | 86.82364 | 30107 ft | 394 kts | 104° |
| 2026-05-09 00:27 | 27.37760 | 86.88422 | 30106 ft | 393 kts | 104° |
| 2026-05-09 00:28 | 27.36635 | 86.94176 | 30088 ft | 394 kts | 105° |
| 2026-05-09 00:28 | 27.35485 | 87.00037 | 30084 ft | 393 kts | 105° |
| 2026-05-09 00:29 | 27.34274 | 87.06197 | 30071 ft | 395 kts | 105° |
| 2026-05-09 00:29 | 27.33083 | 87.12241 | 30070 ft | 395 kts | 105° |
| 2026-05-09 00:30 | 27.31883 | 87.18316 | 30064 ft | 396 kts | 105° |
| 2026-05-09 00:30 | 27.31228 | 87.24482 | 30064 ft | 399 kts | 97° |
| 2026-05-09 00:31 | 27.30729 | 87.30721 | 30060 ft | 399 kts | 98° |
| 2026-05-09 00:31 | 27.30218 | 87.36941 | 30058 ft | 400 kts | 98° |
| 2026-05-09 00:32 | 27.29718 | 87.42993 | 30059 ft | 400 kts | 98° |
| 2026-05-09 00:32 | 27.29200 | 87.49226 | 30058 ft | 400 kts | 98° |
| 2026-05-09 00:33 | 27.28683 | 87.55406 | 30066 ft | 401 kts | 98° |
| 2026-05-09 00:33 | 27.28159 | 87.61644 | 30058 ft | 402 kts | 98° |
| 2026-05-09 00:34 | 27.27637 | 87.67815 | 30059 ft | 402 kts | 98° |
| 2026-05-09 00:34 | 27.27105 | 87.74082 | 30061 ft | 401 kts | 98° |
| 2026-05-09 00:35 | 27.26574 | 87.80302 | 30060 ft | 402 kts | 99° |
| 2026-05-09 00:35 | 27.26017 | 87.86799 | 30071 ft | 402 kts | 99° |
| 2026-05-09 00:36 | 27.25477 | 87.93055 | 30065 ft | 405 kts | 99° |
| 2026-05-09 00:36 | 27.24930 | 87.99371 | 30052 ft | 404 kts | 99° |
| 2026-05-09 00:37 | 27.24385 | 88.05622 | 30053 ft | 405 kts | 99° |
| 2026-05-09 00:37 | 27.23836 | 88.11878 | 30039 ft | 410 kts | 99° |
| 2026-05-09 00:37 | 27.23546 | 88.15156 | 30027 ft | 424 kts | 99° |
| 2026-05-09 00:38 | 27.23248 | 88.18486 | 29826 ft | 442 kts | 99° |
| 2026-05-09 00:38 | 27.22931 | 88.22012 | 29558 ft | 463 kts | 99° |
| 2026-05-09 00:38 | 27.22604 | 88.25674 | 29296 ft | 482 kts | 99° |
| 2026-05-09 00:38 | 27.22268 | 88.29470 | 29017 ft | 488 kts | 98° |
| 2026-05-09 00:39 | 27.21936 | 88.33246 | 28739 ft | 485 kts | 98° |
| 2026-05-09 00:39 | 27.21606 | 88.36968 | 28131 ft | 484 kts | 98° |
| 2026-05-09 00:39 | 27.21271 | 88.40721 | 27512 ft | 481 kts | 98° |
| 2026-05-09 00:39 | 27.20939 | 88.44412 | 26891 ft | 477 kts | 98° |
| 2026-05-09 00:40 | 27.20612 | 88.48006 | 26274 ft | 473 kts | 98° |
| 2026-05-09 00:40 | 27.20280 | 88.51659 | 25665 ft | 468 kts | 98° |
| 2026-05-09 00:40 | 27.19953 | 88.55238 | 25030 ft | 465 kts | 98° |
| 2026-05-09 00:41 | 27.19290 | 88.62462 | 23754 ft | 459 kts | 97° |
| 2026-05-09 00:41 | 27.18964 | 88.66004 | 23120 ft | 454 kts | 97° |
| 2026-05-09 00:41 | 27.18643 | 88.69497 | 22494 ft | 447 kts | 97° |
| 2026-05-09 00:41 | 27.18327 | 88.72941 | 21881 ft | 441 kts | 97° |
| 2026-05-09 00:42 | 27.18011 | 88.76350 | 21253 ft | 436 kts | 97° |
| 2026-05-09 00:42 | 27.17694 | 88.79762 | 20621 ft | 432 kts | 97° |
| 2026-05-09 00:42 | 27.17383 | 88.83094 | 20020 ft | 428 kts | 97° |
| 2026-05-09 00:42 | 27.17181 | 88.85254 | 19578 ft | 427 kts | 97° |
| 2026-05-09 00:43 | 27.16778 | 88.89581 | 18799 ft | 421 kts | 97° |
| 2026-05-09 00:43 | 27.16576 | 88.91739 | 18406 ft | 418 kts | 97° |
| 2026-05-09 00:43 | 27.16273 | 88.94976 | 17763 ft | 413 kts | 97° |
| 2026-05-09 00:43 | 27.15974 | 88.98156 | 17247 ft | 405 kts | 97° |
| 2026-05-09 00:44 | 27.15684 | 89.01240 | 17066 ft | 388 kts | 97° |
| 2026-05-09 00:44 | 27.15408 | 89.04172 | 17036 ft | 367 kts | 97° |
| 2026-05-09 00:44 | 27.15146 | 89.06949 | 17048 ft | 349 kts | 97° |
| 2026-05-09 00:44 | 27.14892 | 89.09624 | 17048 ft | 332 kts | 97° |
| 2026-05-09 00:45 | 27.14655 | 89.12134 | 17041 ft | 315 kts | 97° |
| 2026-05-09 00:45 | 27.14430 | 89.14509 | 17054 ft | 298 kts | 97° |
| 2026-05-09 00:45 | 27.14236 | 89.16763 | 17057 ft | 284 kts | 92° |
| 2026-05-09 00:45 | 27.14505 | 89.18909 | 16934 ft | 275 kts | 72° |
| 2026-05-09 00:46 | 27.15335 | 89.20819 | 16634 ft | 272 kts | 60° |
| 2026-05-09 00:46 | 27.16272 | 89.22647 | 16429 ft | 264 kts | 59° |
| 2026-05-09 00:46 | 27.17305 | 89.24284 | 16329 ft | 251 kts | 50° |
| 2026-05-09 00:46 | 27.18481 | 89.25682 | 16145 ft | 244 kts | 42° |
| 2026-05-09 00:47 | 27.19792 | 89.26869 | 15835 ft | 242 kts | 34° |
| 2026-05-09 00:47 | 27.21203 | 89.27829 | 15534 ft | 241 kts | 27° |
| 2026-05-09 00:47 | 27.22727 | 89.28577 | 15272 ft | 238 kts | 19° |
| 2026-05-09 00:47 | 27.24288 | 89.29082 | 15142 ft | 231 kts | 12° |
| 2026-05-09 00:48 | 27.25906 | 89.29396 | 15097 ft | 240 kts | 9° |
| 2026-05-09 00:48 | 27.27544 | 89.29696 | 15057 ft | 237 kts | 9° |
| 2026-05-09 00:48 | 27.29154 | 89.30000 | 14883 ft | 233 kts | 10° |
| 2026-05-09 00:48 | 27.30739 | 89.30305 | 14598 ft | 232 kts | 10° |
| 2026-05-09 00:49 | 27.32297 | 89.30605 | 14314 ft | 230 kts | 8° |
| 2026-05-09 00:49 | 27.33918 | 89.30630 | 14040 ft | 229 kts | 353° |
| 2026-05-09 00:49 | 27.35447 | 89.30203 | 13818 ft | 226 kts | 339° |
| 2026-05-09 00:49 | 27.36834 | 89.29385 | 13779 ft | 230 kts | 326° |
| 2026-05-09 00:50 | 27.38146 | 89.28372 | 13801 ft | 222 kts | 327° |
| 2026-05-09 00:50 | 27.39397 | 89.27441 | 13766 ft | 203 kts | 328° |
| 2026-05-09 00:50 | 27.40502 | 89.26629 | 13766 ft | 184 kts | 328° |
| 2026-05-09 00:50 | 27.41621 | 89.25998 | 13782 ft | 182 kts | 342° |
| 2026-05-09 00:51 | 27.42869 | 89.25706 | 13770 ft | 182 kts | 358° |
| 2026-05-09 00:51 | 27.44142 | 89.25786 | 13772 ft | 183 kts | 12° |
| 2026-05-09 00:51 | 27.45328 | 89.26208 | 13774 ft | 179 kts | 26° |
| 2026-05-09 00:51 | 27.46377 | 89.26929 | 13776 ft | 177 kts | 40° |
| 2026-05-09 00:52 | 27.47263 | 89.27942 | 13779 ft | 181 kts | 54° |
| 2026-05-09 00:52 | 27.47871 | 89.29116 | 13767 ft | 176 kts | 68° |
| 2026-05-09 00:52 | 27.48220 | 89.30449 | 13632 ft | 175 kts | 82° |
| 2026-05-09 00:52 | 27.48272 | 89.31792 | 13346 ft | 174 kts | 95° |
| 2026-05-09 00:53 | 27.48030 | 89.33134 | 12998 ft | 176 kts | 108° |
| 2026-05-09 00:53 | 27.47435 | 89.34399 | 12494 ft | 188 kts | 124° |
| 2026-05-09 00:53 | 27.46636 | 89.35616 | 11899 ft | 195 kts | 129° |
| 2026-05-09 00:53 | 27.45792 | 89.36773 | 11343 ft | 186 kts | 130° |
| 2026-05-09 00:54 | 27.44962 | 89.37893 | 10460 ft | 191 kts | 126° |
| 2026-05-09 00:54 | 27.44273 | 89.39222 | 9475 ft | 200 kts | 116° |
| 2026-05-09 00:54 | 27.43589 | 89.40543 | 8853 ft | 189 kts | 128° |
| 2026-05-09 00:54 | 27.42557 | 89.41348 | 8251 ft | 182 kts | 160° |
| 2026-05-09 00:55 | 27.41355 | 89.41825 | 7510 ft | 182 kts | 155° |
| 2026-05-09 00:55 | 27.40314 | 89.42485 | 7326 ft | 154 kts | 150° |
| 2026-05-09 00:55 | 27.39736 | 89.42848 | 7312 ft | 36 kts | 150° |
| 2026-05-09 00:55 | 27.39653 | 89.42901 | 7311 ft | 12 kts | 150° |
| 2026-05-09 00:56 | 27.39564 | 89.42957 | 7307 ft | 18 kts | 150° |
| 2026-05-09 00:56 | 27.39461 | 89.43008 | 7301 ft | 10 kts | 184° |
| 2026-05-09 00:56 | 27.39426 | 89.42951 | 7302 ft | 9 kts | 290° |
| 2026-05-09 00:56 | 27.39464 | 89.42913 | 7304 ft | 7 kts | 332° |
| 2026-05-09 00:57 | 27.39501 | 89.42891 | 7306 ft | 6 kts | 332° |
| 2026-05-09 00:57 | 27.39534 | 89.42871 | 7308 ft | 5 kts | 331° |
| 2026-05-09 00:57 | 27.39572 | 89.42847 | 7309 ft | 9 kts | 329° |
| 2026-05-09 00:57 | 27.39647 | 89.42797 | 7311 ft | 16 kts | 329° |
| 2026-05-09 00:58 | 27.39763 | 89.42722 | 7314 ft | 22 kts | 332° |
| 2026-05-09 00:58 | 27.39908 | 89.42631 | 7318 ft | 26 kts | 331° |
| 2026-05-09 00:58 | 27.40067 | 89.42531 | 7322 ft | 26 kts | 331° |
| 2026-05-09 00:58 | 27.40182 | 89.42458 | 7324 ft | 18 kts | 330° |
| 2026-05-09 00:59 | 27.40286 | 89.42387 | 7330 ft | 17 kts | 328° |
| 2026-05-09 00:59 | 27.40381 | 89.42325 | 7335 ft | 15 kts | 333° |
| 2026-05-09 00:59 | 27.40469 | 89.42273 | 7338 ft | 14 kts | 332° |
| 2026-05-09 00:59 | 27.40536 | 89.42229 | 7341 ft | 0 kts | 327° |
| 2026-05-09 01:00 | 27.40537 | 89.42228 | 7341 ft | 1 kts | 326° |
| 2026-05-09 01:00 | 27.40560 | 89.42192 | 7344 ft | 6 kts | 298° |
| 2026-05-09 01:00 | 27.40568 | 89.42116 | 7345 ft | 0 kts | 245° |
| 2026-05-09 01:01 | 27.40566 | 89.42159 | 7345 ft | 17 kts | 245° |
| 2026-05-09 01:01 | 27.40561 | 89.42147 | 7345 ft | 0 kts | 245° |